Time;durP1;ratioP1;P1;durP2;ratioP2;P2;SDS_P1;SDS_P2;PMS_P1;PMS_P2;Temp;Humidity;BMP_temperature;BMP_pressure;BME280_temperature;BME280_humidity;BME280_pressure;Samples;Min_cycle;Max_cycle;Signal;HPM_P1;HPM_P2
2022/08/22 00:01:37;;;;;;;10.05;6.18;;;;;;;19.22;100.00;96212.81;5021617;28;20152;-53
2022/08/22 00:04:12;;;;;;;9.60;5.95;;;;;;;19.62;100.00;96207.47;5022745;28;20531;-56
2022/08/22 00:06:49;;;;;;;8.30;6.57;;;;;;;19.58;100.00;96207.06;5022650;28;20073;-52
2022/08/22 00:09:28;;;;;;;7.63;6.22;;;;;;;19.92;100.00;96206.03;5021163;28;20065;-57
2022/08/22 00:12:07;;;;;;;12.20;6.75;;;;;;;19.24;100.00;96205.44;5024275;28;20131;-51
2022/08/22 00:14:40;;;;;;;10.43;6.65;;;;;;;19.14;100.00;96213.03;5023501;28;20065;-53
2022/08/22 00:17:28;;;;;;;8.88;6.68;;;;;;;19.26;100.00;96214.06;5024096;28;20549;-51
2022/08/22 00:20:06;;;;;;;10.38;6.82;;;;;;;19.37;100.00;96217.97;5019981;28;20076;-52
2022/08/22 00:22:39;;;;;;;10.95;6.32;;;;;;;19.66;100.00;96209.56;5023449;28;20068;-47
2022/08/22 00:25:25;;;;;;;9.73;6.63;;;;;;;19.25;100.00;96216.94;5023221;28;20091;-54
2022/08/22 00:27:57;;;;;;;8.05;6.30;;;;;;;19.24;100.00;96221.47;5018102;28;20081;-48
2022/08/22 00:30:29;;;;;;;8.65;6.07;;;;;;;19.55;100.00;96207.50;5020242;28;20476;-50
2022/08/22 00:33:01;;;;;;;8.57;6.35;;;;;;;19.74;100.00;96199.66;5019836;28;20083;-49
2022/08/22 00:35:38;;;;;;;10.30;6.70;;;;;;;19.51;100.00;96202.75;5024756;28;20083;-49
2022/08/22 00:38:17;;;;;;;8.43;6.53;;;;;;;19.49;100.00;96202.13;5025072;28;20665;-53
2022/08/22 00:40:56;;;;;;;9.07;6.78;;;;;;;19.21;100.00;96198.63;5026311;28;20804;-54
2022/08/22 00:44:00;;;;;;;13.55;7.63;;;;;;;19.06;100.00;96200.66;5023843;28;20038;-52
2022/08/22 00:46:43;;;;;;;9.65;7.45;;;;;;;19.48;100.00;96204.00;5026754;28;20534;-54
2022/08/22 00:49:23;;;;;;;11.38;7.47;;;;;;;19.56;100.00;96201.09;5027363;28;20455;-51
2022/08/22 00:52:26;;;;;;;8.48;6.07;;;;;;;19.29;100.00;96204.81;5025070;28;20077;-51
2022/08/22 00:55:17;;;;;;;8.38;5.43;;;;;;;18.44;100.00;96204.41;5025532;28;20080;-51
2022/08/22 00:57:55;;;;;;;6.10;5.50;;;;;;;18.61;100.00;96208.38;5026459;28;20071;-52
2022/08/22 01:00:25;;;;;;;6.63;5.40;;;;;;;18.42;100.00;96215.28;5023245;28;20073;-52
2022/08/22 01:03:10;;;;;;;;;;;;;;;18.83;100.00;96209.09;5023324;28;20038;-53
2022/08/22 01:05:59;;;;;;;8.57;5.63;;;;;;;18.16;100.00;96208.00;5026214;28;20037;-51
2022/08/22 01:08:39;;;;;;;8.52;6.45;;;;;;;18.18;100.00;96208.63;5025426;28;20085;-50
2022/08/22 01:11:22;;;;;;;8.60;6.95;;;;;;;18.32;100.00;96211.34;5022631;28;20084;-51
2022/08/22 01:14:04;;;;;;;9.95;6.82;;;;;;;18.71;100.00;96211.50;5024868;28;20092;-53
2022/08/22 01:16:59;;;;;;;10.68;7.05;;;;;;;18.82;100.00;96218.09;5022162;28;20082;-51
2022/08/22 01:20:03;;;;;;;8.55;6.43;;;;;;;18.97;100.00;96207.25;5022358;28;20100;-52
2022/08/22 01:23:06;;;;;;;12.70;6.40;;;;;;;18.99;100.00;96199.84;5026822;28;20457;-55
2022/08/22 01:26:17;;;;;;;11.52;7.03;;;;;;;19.39;100.00;96199.88;5020582;28;20428;-53
2022/08/22 01:29:26;;;;;;;10.68;7.07;;;;;;;19.34;100.00;96195.16;5026830;28;20084;-48
2022/08/22 01:32:19;;;;;;;11.73;7.10;;;;;;;19.22;100.00;96196.78;4997735;28;20461;-50
2022/08/22 01:35:04;;;;;;;8.25;7.13;;;;;;;18.58;100.00;96194.59;5022561;28;20077;-49
2022/08/22 01:38:09;;;;;;;8.27;6.93;;;;;;;19.07;100.00;96197.00;5024489;28;20077;-50
2022/08/22 01:41:15;;;;;;;9.13;6.47;;;;;;;18.99;100.00;96191.81;4999595;28;20073;-55
2022/08/22 01:44:02;;;;;;;12.23;7.03;;;;;;;19.29;100.00;96194.94;5003381;28;20087;-54
2022/08/22 01:46:35;;;;;;;12.18;6.65;;;;;;;19.23;100.00;96194.94;5019089;28;20095;-54
2022/08/22 01:49:10;;;;;;;11.75;6.78;;;;;;;19.41;100.00;96197.84;5017534;28;20060;-46
2022/08/22 01:51:46;;;;;;;8.45;5.85;;;;;;;19.46;100.00;96200.69;5051554;28;20052;-50
2022/08/22 01:54:25;;;;;;;11.00;6.07;;;;;;;19.47;100.00;96214.88;5025123;28;20170;-53
2022/08/22 01:56:59;;;;;;;9.75;5.80;;;;;;;19.35;100.00;96204.81;5017802;28;20123;-49
2022/08/22 01:59:33;;;;;;;8.20;5.68;;;;;;;18.62;100.00;96217.22;5021297;28;20432;-50
2022/08/22 02:02:20;;;;;;;11.20;6.68;;;;;;;18.77;100.00;96222.44;5024116;28;20081;-48
2022/08/22 02:04:55;;;;;;;13.13;5.97;;;;;;;18.74;100.00;96218.31;5026624;28;20069;-55
2022/08/22 02:07:28;;;;;;;11.98;5.82;;;;;;;18.78;100.00;96214.19;5024673;28;20065;-51
2022/08/22 02:10:09;;;;;;;8.60;7.07;;;;;;;18.97;100.00;96220.63;5023972;28;20076;-50
2022/08/22 02:12:44;;;;;;;9.50;6.93;;;;;;;19.06;100.00;96223.91;5017454;28;20124;-50
2022/08/22 02:15:18;;;;;;;9.20;7.85;;;;;;;19.17;100.00;96218.78;5021941;28;20547;-52
2022/08/22 02:18:01;;;;;;;12.15;7.65;;;;;;;19.09;100.00;96221.66;5024410;28;20070;-50
2022/08/22 02:20:33;;;;;;;12.02;7.93;;;;;;;19.14;100.00;96224.56;5024492;28;20095;-51
2022/08/22 02:23:08;;;;;;;8.95;7.60;;;;;;;19.29;100.00;96228.88;5022800;28;20100;-49
2022/08/22 02:25:49;;;;;;;10.90;7.78;;;;;;;19.17;100.00;96229.50;5019045;28;20184;-51
2022/08/22 02:28:30;;;;;;;10.73;7.25;;;;;;;19.02;100.00;96228.00;5016078;28;20570;-48
2022/08/22 02:31:03;;;;;;;10.02;7.50;;;;;;;18.90;100.00;96235.81;5021034;28;20073;-46
2022/08/22 02:33:35;;;;;;;14.15;6.82;;;;;;;19.45;100.00;96231.97;5023162;28;20546;-49
2022/08/22 02:36:10;;;;;;;12.40;7.10;;;;;;;19.27;100.00;96226.41;5022780;28;20073;-54
2022/08/22 02:38:44;;;;;;;12.35;6.32;;;;;;;19.25;100.00;96223.13;5013588;28;20074;-54
2022/08/22 02:41:17;;;;;;;10.70;6.40;;;;;;;19.23;100.00;96219.81;5023016;28;20073;-48
2022/08/22 02:44:01;;;;;;;13.32;6.78;;;;;;;18.83;100.00;96224.28;5019326;28;20069;-49
2022/08/22 02:46:39;;;;;;;10.43;7.18;;;;;;;18.33;100.00;96224.50;5023466;28;20088;-47
2022/08/22 02:49:12;;;;;;;9.98;7.07;;;;;;;18.35;100.00;96222.47;5021197;28;20085;-48
2022/08/22 02:51:47;;;;;;;10.40;7.10;;;;;;;18.65;100.00;96224.81;5017996;28;20089;-56
2022/08/22 02:54:20;;;;;;;13.95;8.00;;;;;;;18.33;100.00;96224.50;5022436;28;20084;-49
2022/08/22 02:56:52;;;;;;;9.68;7.15;;;;;;;18.83;100.00;96211.75;5018756;28;20080;-52
2022/08/22 02:59:33;;;;;;;12.43;7.25;;;;;;;19.16;100.00;96217.13;5022063;28;20088;-54
2022/08/22 03:02:27;;;;;;;16.50;7.40;;;;;;;19.14;100.00;96218.38;5023401;28;20081;-48
2022/08/22 03:04:57;;;;;;;12.75;7.32;;;;;;;19.40;100.00;96225.56;5021565;28;20093;-46
2022/08/22 03:07:32;;;;;;;14.05;7.10;;;;;;;19.31;100.00;96214.28;5017701;28;20539;-50
2022/08/22 03:10:14;;;;;;;10.75;7.35;;;;;;;18.58;100.00;96226.63;5020675;28;20073;-52
2022/08/22 03:12:49;;;;;;;11.88;6.93;;;;;;;19.14;100.00;96215.72;5019645;28;20089;-52
2022/08/22 03:15:27;;;;;;;13.20;6.75;;;;;;;19.03;100.00;96222.47;5023253;28;20072;-52
2022/08/22 03:18:04;;;;;;;8.48;6.30;;;;;;;19.10;100.00;96222.50;5021873;28;20069;-53
2022/08/22 03:20:41;;;;;;;9.43;6.07;;;;;;;19.07;100.00;96220.22;5015451;28;20057;-55
2022/08/22 03:23:16;;;;;;;16.38;6.85;;;;;;;19.21;100.00;96224.56;5020560;28;20090;-50
2022/08/22 03:25:51;;;;;;;14.05;6.93;;;;;;;19.12;100.00;96226.59;5018480;28;20091;-49
2022/08/22 03:28:22;;;;;;;11.48;7.57;;;;;;;18.94;100.00;96224.50;5023116;28;20069;-52
2022/08/22 03:30:59;;;;;;;13.68;6.78;;;;;;;18.79;100.00;96223.88;5020498;28;20088;-53
2022/08/22 03:33:29;;;;;;;11.35;6.60;;;;;;;18.87;100.00;96225.53;5021561;28;20054;-49
2022/08/22 03:36:03;;;;;;;9.60;6.22;;;;;;;18.78;100.00;96221.38;5021522;28;21215;-48
2022/08/22 03:38:44;;;;;;;14.32;5.38;;;;;;;18.40;100.00;96219.19;5019210;28;20103;-53
2022/08/22 03:41:42;;;;;;;12.35;5.78;;;;;;;18.21;100.00;96223.44;5024668;28;20084;-53
2022/08/22 03:44:39;;;;;;;13.75;6.22;;;;;;;17.75;100.00;96227.44;5017245;28;20073;-52
2022/08/22 03:47:35;;;;;;;13.23;6.68;;;;;;;17.98;100.00;96232.53;5006486;28;20078;-50
2022/08/22 03:50:24;;;;;;;10.93;6.60;;;;;;;18.29;100.00;96228.59;5019508;28;20082;-56
2022/08/22 03:53:38;;;;;;;8.02;6.15;;;;;;;18.29;100.00;96223.25;5024414;28;20084;-47
2022/08/22 03:56:31;;;;;;;11.98;6.05;;;;;;;18.48;100.00;96230.53;5012283;28;20089;-53
2022/08/22 03:59:22;;;;;;;9.15;6.38;;;;;;;18.54;100.00;96220.88;5019292;28;20097;-53
2022/08/22 04:02:10;;;;;;;8.98;4.68;;;;;;;18.32;100.00;96232.72;5020262;28;20683;-53
2022/08/22 04:05:24;;;;;;;7.85;5.35;;;;;;;18.24;100.00;96231.03;5021714;28;20085;-51
2022/08/22 04:08:09;;;;;;;6.35;5.20;;;;;;;17.83;100.00;96239.84;5024125;28;20077;-50
2022/08/22 04:11:20;;;;;;;10.10;5.65;;;;;;;17.84;100.00;96235.31;5018057;28;20100;-53
2022/08/22 04:14:11;;;;;;;6.93;5.05;;;;;;;18.07;100.00;96243.88;5006000;28;20084;-52
2022/08/22 04:17:14;;;;;;;8.20;5.82;;;;;;;17.94;100.00;96251.81;5018341;28;20077;-52
2022/08/22 04:20:13;;;;;;;8.13;6.15;;;;;;;18.37;100.00;96246.28;5019767;28;20088;-54
2022/08/22 04:22:57;;;;;;;8.13;5.75;;;;;;;18.45;100.00;96243.44;5013099;28;20085;-52
2022/08/22 04:25:31;;;;;;;9.65;5.78;;;;;;;18.58;100.00;96246.19;5018893;28;20076;-49
2022/08/22 04:28:03;;;;;;;8.57;6.30;;;;;;;18.62;100.00;96247.41;5022338;28;20092;-55
2022/08/22 04:30:35;;;;;;;7.57;5.97;;;;;;;18.59;100.00;96258.50;5017543;28;20081;-47
2022/08/22 04:33:08;;;;;;;8.80;5.18;;;;;;;18.52;100.00;96238.97;5015979;28;20081;-51
2022/08/22 04:35:43;;;;;;;8.63;5.97;;;;;;;18.52;100.00;96238.16;5020991;28;20074;-51
2022/08/22 04:38:15;;;;;;;11.77;6.95;;;;;;;18.07;100.00;96249.22;5014343;28;20077;-53
2022/08/22 04:40:49;;;;;;;11.65;7.15;;;;;;;17.89;100.00;96247.03;5022888;28;20065;-55
2022/08/22 04:43:22;;;;;;;12.80;6.85;;;;;;;17.79;100.00;96255.41;5016850;28;20096;-55
2022/08/22 04:45:57;;;;;;;12.48;7.28;;;;;;;17.72;100.00;96251.00;5019870;28;20555;-56
2022/08/22 04:48:32;;;;;;;10.55;6.85;;;;;;;18.21;100.00;96245.59;5022577;28;20080;-52
2022/08/22 04:51:03;;;;;;;8.45;6.25;;;;;;;18.59;100.00;96247.00;5016661;28;20077;-53
2022/08/22 04:53:56;;;;;;;10.75;7.32;;;;;;;18.55;100.00;96251.91;5020028;28;20092;-54
2022/08/22 04:56:34;;;;;;;9.18;5.63;;;;;;;18.69;100.00;96258.13;5017160;28;20069;-54
2022/08/22 04:59:08;;;;;;;9.13;5.50;;;;;;;18.31;100.00;96257.78;5021086;28;20073;-54
2022/08/22 05:01:42;;;;;;;6.30;5.43;;;;;;;19.29;100.00;96255.63;5017811;28;20524;-53
2022/08/22 05:04:15;;;;;;;8.80;6.00;;;;;;;19.80;100.00;96247.00;5016521;28;20089;-50
2022/08/22 05:06:46;;;;;;;10.25;7.07;;;;;;;20.17;100.00;96242.00;5024302;28;20096;-54
2022/08/22 05:09:19;;;;;;;8.38;6.10;;;;;;;20.10;100.00;96250.06;5020911;28;20805;-53
2022/08/22 05:11:50;;;;;;;7.45;6.03;;;;;;;19.76;100.00;96251.94;5025652;28;20077;-54
2022/08/22 05:14:19;;;;;;;;;;;;;;;20.35;100.00;96244.81;5023644;28;20082;-52
2022/08/22 05:16:52;;;;;;;16.00;7.95;;;;;;;20.56;100.00;96241.88;5022917;28;20365;-57
2022/08/22 05:19:24;;;;;;;7.55;6.25;;;;;;;20.98;100.00;96236.91;5025205;28;20093;-55
2022/08/22 05:21:59;;;;;;;8.38;6.60;;;;;;;21.14;100.00;96232.91;5023698;28;20065;-52
2022/08/22 05:24:32;;;;;;;9.60;6.45;;;;;;;21.60;100.00;96225.56;5024112;28;20108;-48
2022/08/22 05:27:11;;;;;;;8.60;6.60;;;;;;;22.13;100.00;96235.81;5021653;28;20822;-47
2022/08/22 05:29:43;;;;;;;7.93;6.80;;;;;;;21.60;100.00;96239.81;5019291;28;20527;-53
2022/08/22 05:32:17;;;;;;;7.95;6.18;;;;;;;22.03;100.00;96234.47;5023059;28;20536;-53
2022/08/22 05:34:47;;;;;;;8.80;6.43;;;;;;;21.16;100.00;96251.44;5026544;28;20538;-54
2022/08/22 05:37:21;;;;;;;7.38;6.22;;;;;;;21.22;100.00;96258.63;5020038;28;20081;-49
2022/08/22 05:39:52;;;;;;;8.98;6.47;;;;;;;21.05;100.00;96259.16;5014998;28;20084;-50
2022/08/22 05:42:25;;;;;;;9.88;7.45;;;;;;;20.64;100.00;96256.88;5019747;28;20524;-52
2022/08/22 05:44:54;;;;;;;11.30;7.40;;;;;;;20.86;100.00;96260.91;5023602;28;20100;-53
2022/08/22 05:47:27;;;;;;;9.57;7.80;;;;;;;21.20;100.00;96258.88;5022087;28;20524;-48
2022/08/22 05:49:59;;;;;;;12.25;7.82;;;;;;;20.53;100.00;96263.72;5017713;28;20085;-50
2022/08/22 05:52:39;;;;;;;9.30;8.00;;;;;;;20.49;100.00;96270.53;5022773;28;20111;-51
2022/08/22 05:55:23;;;;;;;13.98;8.80;;;;;;;21.03;100.00;96265.78;5024500;28;20081;-51
2022/08/22 05:58:05;;;;;;;9.32;7.93;;;;;;;21.63;100.00;96260.84;5023958;28;20544;-53
2022/08/22 06:00:38;;;;;;;10.63;8.27;;;;;;;21.80;100.00;96269.16;5014057;28;20081;-57
2022/08/22 06:03:14;;;;;;;14.60;8.73;;;;;;;22.04;100.00;96264.81;5020055;28;20105;-52
2022/08/22 06:05:47;;;;;;;10.02;8.77;;;;;;;22.41;100.00;96265.69;5016803;28;20108;-53
2022/08/22 06:08:20;;;;;;;12.00;9.88;;;;;;;22.59;100.00;96272.13;5015850;28;20078;-50
2022/08/22 06:10:52;;;;;;;11.57;10.27;;;;;;;22.35;100.00;96266.59;5016073;28;20655;-53
2022/08/22 06:13:26;;;;;;;11.75;10.40;;;;;;;21.90;100.00;96271.34;5022705;28;20057;-52
2022/08/22 06:16:07;;;;;;;13.48;11.13;;;;;;;21.38;100.00;96276.94;5017123;28;20116;-53
2022/08/22 06:18:40;;;;;;;14.30;11.70;;;;;;;21.85;100.00;96285.44;5030616;28;20081;-54
2022/08/22 06:21:11;;;;;;;11.77;10.52;;;;;;;22.19;100.00;96289.47;5026034;28;20085;-48
2022/08/22 06:23:43;;;;;;;14.55;11.55;;;;;;;22.75;100.00;96271.50;5030214;28;20088;-56
2022/08/22 06:26:12;;;;;;;17.50;11.48;;;;;;;22.91;100.00;96267.38;5030324;28;20089;-54
2022/08/22 06:28:51;;;;;;;15.27;12.45;;;;;;;23.05;100.00;96278.78;5029974;28;20088;-53
2022/08/22 06:31:25;;;;;;;14.57;12.13;;;;;;;23.22;100.00;96272.53;5024329;28;20037;-53
2022/08/22 06:33:59;;;;;;;15.20;12.23;;;;;;;23.57;100.00;96279.06;5027127;28;20525;-52
2022/08/22 06:36:31;;;;;;;14.32;11.93;;;;;;;23.11;100.00;96278.72;5030745;28;20540;-50
2022/08/22 06:39:07;;;;;;;16.25;12.25;;;;;;;23.21;100.00;96270.09;5026632;28;20097;-53
2022/08/22 06:41:39;;;;;;;13.35;11.20;;;;;;;23.19;100.00;96278.41;5029432;28;20099;-54
2022/08/22 06:44:10;;;;;;;12.15;10.95;;;;;;;23.45;100.00;96274.50;5030479;28;20085;-54
2022/08/22 06:46:39;;;;;;;13.00;11.60;;;;;;;23.16;100.00;96272.66;5029911;28;20088;-51
2022/08/22 06:49:09;;;;;;;17.63;11.55;;;;;;;23.63;100.00;96273.59;5027479;28;20460;-52
2022/08/22 06:51:38;;;;;;;12.95;10.60;;;;;;;23.41;100.00;96278.69;5029442;28;20072;-56
2022/08/22 06:54:13;;;;;;;14.07;11.10;;;;;;;23.57;100.00;96271.00;5030722;28;20484;-55
2022/08/22 06:56:44;;;;;;;14.13;11.07;;;;;;;23.32;100.00;96279.25;5029569;28;20502;-54
2022/08/22 06:59:15;;;;;;;14.45;10.65;;;;;;;23.47;100.00;96276.97;5030056;28;20085;-54
2022/08/22 07:01:48;;;;;;;12.85;10.35;;;;;;;23.87;100.00;96284.41;5028220;28;20084;-54
2022/08/22 07:04:24;;;;;;;15.20;10.57;;;;;;;24.34;100.00;96277.16;5025561;28;20087;-55
2022/08/22 07:06:54;;;;;;;13.45;10.60;;;;;;;24.55;100.00;96275.75;5030068;28;20464;-51
2022/08/22 07:09:26;;;;;;;13.27;9.95;;;;;;;24.07;100.00;96276.81;5027945;28;20475;-53
2022/08/22 07:11:56;;;;;;;13.35;10.63;;;;;;;24.16;100.00;96283.50;5027696;28;20075;-51
2022/08/22 07:14:25;;;;;;;;;;;;;;;24.85;100.00;96280.16;5030720;28;20085;-50
2022/08/22 07:16:57;;;;;;;12.45;10.35;;;;;;;24.91;100.00;96270.25;5028943;28;19960;-56
2022/08/22 07:19:28;;;;;;;11.70;10.18;;;;;;;25.28;100.00;96273.44;5029236;28;20088;-50
2022/08/22 07:21:58;;;;;;;13.85;10.77;;;;;;;25.27;100.00;96269.91;5028828;28;20069;-50
2022/08/22 07:24:29;;;;;;;11.53;9.47;;;;;;;25.47;100.00;96279.44;5029799;28;20093;-52
2022/08/22 07:27:13;;;;;;;12.23;9.45;;;;;;;25.36;100.00;96275.72;5028930;28;20077;-46
2022/08/22 07:29:48;;;;;;;12.65;9.25;;;;;;;25.95;100.00;96272.72;5023365;28;20081;-46
2022/08/22 07:32:19;;;;;;;14.70;9.48;;;;;;;26.06;100.00;96268.28;5022170;28;20618;-54
2022/08/22 07:35:01;;;;;;;13.02;9.35;;;;;;;25.62;100.00;96273.47;5028682;28;20524;-51
2022/08/22 07:37:45;;;;;;;10.30;9.18;;;;;;;25.18;100.00;96274.06;5028709;28;20080;-52
2022/08/22 07:40:19;;;;;;;15.52;9.20;;;;;;;25.96;100.00;96272.44;5028877;28;20076;-52
2022/08/22 07:42:51;;;;;;;12.40;8.48;;;;;;;26.25;100.00;96265.03;5028912;28;20033;-52
2022/08/22 07:45:33;;;;;;;11.82;8.63;;;;;;;26.20;100.00;96264.16;5023330;28;20088;-46
2022/08/22 07:48:14;;;;;;;14.13;8.65;;;;;;;25.70;100.00;96265.78;5029137;28;20540;-54
2022/08/22 07:51:07;;;;;;;9.98;7.97;;;;;;;26.04;100.00;96263.09;5028975;28;20093;-54
2022/08/22 07:53:42;;;;;;;11.40;8.00;;;;;;;26.25;100.00;96266.91;5023793;28;20081;-49
2022/08/22 07:56:15;;;;;;;12.68;8.98;;;;;;;25.77;100.00;96274.56;5028927;28;20084;-53
2022/08/22 07:58:45;;;;;;;9.38;8.20;;;;;;;25.97;100.00;96270.56;5024233;28;20092;-52
2022/08/22 08:01:18;;;;;;;11.18;8.27;;;;;;;26.07;100.00;96267.19;5028445;28;20112;-50
2022/08/22 08:03:51;;;;;;;10.43;7.95;;;;;;;26.56;100.00;96260.06;5028576;28;20081;-48
2022/08/22 08:06:22;;;;;;;9.77;7.70;;;;;;;26.16;100.00;96266.53;5026628;28;20144;-51
2022/08/22 08:08:52;;;;;;;12.27;8.25;;;;;;;26.13;100.00;96264.31;5017510;28;20085;-55
2022/08/22 08:11:22;;;;;;;11.60;7.65;;;;;;;26.11;100.00;96263.75;5027569;28;20080;-50
2022/08/22 08:13:54;;;;;;;11.20;7.65;;;;;;;26.36;100.00;96263.31;5025104;28;20061;-51
2022/08/22 08:16:25;;;;;;;11.65;8.07;;;;;;;26.14;100.00;96271.34;5025595;28;20080;-55
2022/08/22 08:18:56;;;;;;;11.45;7.32;;;;;;;26.42;95.59;96272.28;5023820;28;20089;-51
2022/08/22 08:21:27;;;;;;;;;;;;;;;26.57;93.38;96269.84;5029036;28;20092;-55
2022/08/22 08:23:55;;;;;;;;;;;;;;;26.24;86.64;96265.28;5029886;28;19953;-51
2022/08/22 08:26:27;;;;;;;12.40;4.75;;;;;;;25.43;91.07;96270.16;5025892;28;19953;-55
2022/08/22 08:28:57;;;;;;;5.82;4.63;;;;;;;25.51;91.83;96267.91;5023589;28;20099;-54
2022/08/22 08:31:30;;;;;;;6.63;4.45;;;;;;;25.68;88.06;96264.41;5027696;28;20088;-55
2022/08/22 08:34:03;;;;;;;7.65;5.30;;;;;;;26.10;97.24;96269.41;5028778;28;20077;-48
2022/08/22 08:36:40;;;;;;;7.43;4.97;;;;;;;26.80;87.60;96266.06;5028918;28;20447;-51
2022/08/22 08:39:17;;;;;;;9.23;4.40;;;;;;;26.49;67.87;96262.13;5028559;28;20476;-51
2022/08/22 08:42:18;;;;;;;8.95;3.78;;;;;;;26.67;70.19;96263.72;5026150;28;20089;-54
2022/08/22 08:45:10;;;;;;;9.02;5.32;;;;;;;26.25;75.79;96266.91;5028672;28;20276;-49
2022/08/22 08:48:15;;;;;;;10.27;5.65;;;;;;;26.69;82.67;96256.19;5022561;28;20076;-48
2022/08/22 08:50:58;;;;;;;5.47;4.32;;;;;;;26.98;74.38;96254.09;5023779;28;20085;-48
2022/08/22 08:53:49;;;;;;;6.40;3.83;;;;;;;27.21;61.34;96253.81;5024159;28;20088;-50
2022/08/22 08:56:25;;;;;;;6.40;3.60;;;;;;;27.10;58.77;96254.75;5030595;28;20092;-55
2022/08/22 08:59:00;;;;;;;5.72;3.15;;;;;;;26.92;57.60;96253.22;5029658;28;20065;-48
2022/08/22 09:01:45;;;;;;;7.03;3.30;;;;;;;27.24;59.72;96248.97;5030951;28;20096;-50
2022/08/22 09:04:45;;;;;;;12.32;3.70;;;;;;;26.82;56.75;96255.81;5025206;28;20057;-55
2022/08/22 09:07:43;;;;;;;6.97;3.23;;;;;;;27.14;53.56;96252.38;5030296;28;20088;-52
2022/08/22 09:10:23;;;;;;;5.53;3.08;;;;;;;27.56;56.18;96246.28;5012538;28;20511;-52
2022/08/22 09:13:17;;;;;;;6.95;4.00;;;;;;;26.87;59.70;96241.50;5031472;28;20077;-54
2022/08/22 09:15:59;;;;;;;6.47;3.65;;;;;;;26.69;57.83;96243.47;5027658;28;20103;-48
2022/08/22 09:18:49;;;;;;;3.95;2.88;;;;;;;27.24;59.11;96248.97;5031549;28;20089;-52
2022/08/22 09:21:28;;;;;;;6.22;3.42;;;;;;;26.62;58.76;96255.56;5025731;28;20085;-55
2022/08/22 09:24:35;;;;;;;6.07;3.28;;;;;;;26.38;59.46;96246.81;5028239;28;20469;-55
2022/08/22 09:27:07;;;;;;;5.95;3.88;;;;;;;26.91;57.82;96248.03;5025620;28;20077;-47
2022/08/22 09:29:41;;;;;;;6.68;3.50;;;;;;;27.38;61.33;96255.59;5030810;28;20107;-48
2022/08/22 09:32:32;;;;;;;6.38;3.63;;;;;;;27.78;60.99;96257.09;5031257;28;20077;-51
2022/08/22 09:35:07;;;;;;;7.30;3.95;;;;;;;26.84;57.08;96260.94;5031329;28;20073;-49
2022/08/22 09:37:45;;;;;;;7.05;3.50;;;;;;;27.03;55.50;96256.84;5030083;28;20512;-48
2022/08/22 09:40:23;;;;;;;6.55;3.60;;;;;;;27.80;54.46;96253.03;5026260;28;20081;-52
2022/08/22 09:43:02;;;;;;;6.35;3.65;;;;;;;27.46;58.84;96244.34;5030904;28;20045;-49
2022/08/22 09:45:46;;;;;;;6.90;4.00;;;;;;;27.55;57.96;96248.19;5030795;28;20072;-54
2022/08/22 09:48:33;;;;;;;5.72;3.08;;;;;;;28.04;51.68;96248.03;5031083;28;20104;-54
2022/08/22 09:51:15;;;;;;;5.90;3.72;;;;;;;28.68;49.71;96247.09;5022247;28;20450;-51
2022/08/22 09:54:13;;;;;;;5.43;3.17;;;;;;;28.34;47.88;96247.44;5031534;28;20080;-50
2022/08/22 09:56:52;;;;;;;4.53;2.67;;;;;;;28.04;52.99;96258.06;5029898;28;20072;-51
2022/08/22 09:59:25;;;;;;;5.32;3.22;;;;;;;28.19;51.14;96254.66;5023732;28;20081;-49
2022/08/22 10:01:59;;;;;;;5.15;3.30;;;;;;;28.54;51.84;96248.66;5025826;28;20081;-52
2022/08/22 10:04:40;;;;;;;7.40;3.40;;;;;;;28.45;50.17;96250.22;5030244;28;20069;-50
2022/08/22 10:07:24;;;;;;;5.88;3.70;;;;;;;27.49;54.97;96262.75;5030798;28;20115;-51
2022/08/22 10:10:00;;;;;;;6.80;3.78;;;;;;;27.83;57.17;96257.94;5024923;28;20073;-49
2022/08/22 10:12:31;;;;;;;8.38;3.70;;;;;;;28.22;55.15;96254.13;5030139;28;20099;-53
2022/08/22 10:15:15;;;;;;;11.77;2.95;;;;;;;27.27;58.49;96254.69;5030736;28;20077;-48
2022/08/22 10:17:57;;;;;;;6.38;3.20;;;;;;;27.59;53.17;96252.00;5031220;28;20092;-51
2022/08/22 10:20:31;;;;;;;6.30;2.97;;;;;;;27.76;54.64;96259.22;5026929;28;20077;-54
2022/08/22 10:23:13;;;;;;;4.80;3.42;;;;;;;27.62;57.75;96253.38;5030033;28;20073;-54
2022/08/22 10:25:44;;;;;;;7.05;3.33;;;;;;;27.94;55.47;96256.09;5030920;28;20076;-46
2022/08/22 10:28:18;;;;;;;7.10;3.30;;;;;;;28.41;52.34;96249.94;5030666;28;20528;-48
2022/08/22 10:31:09;;;;;;;4.43;3.30;;;;;;;28.66;51.17;96245.72;5030554;28;20075;-51
2022/08/22 10:33:42;;;;;;;4.63;2.92;;;;;;;28.73;52.64;96244.38;5028278;28;20076;-54
2022/08/22 10:36:15;;;;;;;3.92;2.70;;;;;;;28.10;47.13;96240.78;5030502;28;20091;-51
2022/08/22 10:38:47;;;;;;;6.32;2.70;;;;;;;28.29;49.45;96244.69;5030684;28;20063;-54
2022/08/22 10:41:27;;;;;;;9.27;2.47;;;;;;;28.62;47.73;96242.72;5030284;28;20149;-50
2022/08/22 10:44:02;;;;;;;4.15;2.50;;;;;;;28.40;48.92;96245.59;5030226;28;20077;-51
2022/08/22 10:46:36;;;;;;;3.95;2.10;;;;;;;28.31;48.47;96239.81;5030612;28;20538;-51
2022/08/22 10:49:09;;;;;;;4.47;2.10;;;;;;;28.76;47.22;96238.41;5024196;28;20081;-49
2022/08/22 10:51:44;;;;;;;3.72;2.15;;;;;;;28.41;42.84;96236.38;5029447;28;20486;-50
2022/08/22 10:54:27;;;;;;;4.50;2.28;;;;;;;27.84;46.56;96245.19;5029754;28;20084;-51
2022/08/22 10:57:06;;;;;;;5.07;2.33;;;;;;;28.31;44.55;96241.72;5027262;28;20081;-50
2022/08/22 10:59:39;;;;;;;4.68;2.10;;;;;;;28.10;46.01;96236.16;5029469;28;20081;-50
2022/08/22 11:02:29;;;;;;;6.53;2.50;;;;;;;28.12;47.37;96241.34;5023029;28;20077;-51
2022/08/22 11:05:14;;;;;;;4.50;2.05;;;;;;;28.82;44.51;96234.66;5026172;28;20091;-50
2022/08/22 11:07:46;;;;;;;4.40;1.88;;;;;;;28.72;42.42;96236.50;5029665;28;20081;-51
2022/08/22 11:10:23;;;;;;;6.15;2.03;;;;;;;28.83;41.78;96238.19;5024342;28;20095;-54
2022/08/22 11:13:10;;;;;;;2.97;1.75;;;;;;;28.44;42.18;96235.03;5029355;28;20077;-55
2022/08/22 11:16:08;;;;;;;3.58;1.85;;;;;;;28.40;42.18;96237.47;5022752;28;20092;-56
2022/08/22 11:18:53;;;;;;;4.32;1.98;;;;;;;28.28;40.31;96240.34;5024301;28;20088;-53
2022/08/22 11:21:45;;;;;;;3.63;1.80;;;;;;;28.48;41.68;96238.84;5026498;28;20092;-56
2022/08/22 11:24:34;;;;;;;3.05;1.70;;;;;;;28.53;40.34;96236.19;5029730;28;20073;-52
2022/08/22 11:27:32;;;;;;;4.88;2.08;;;;;;;28.49;41.52;96241.28;5029002;28;20079;-51
2022/08/22 11:30:11;;;;;;;5.63;2.00;;;;;;;29.04;40.14;96230.94;5023176;28;20073;-54
2022/08/22 11:33:10;;;;;;;3.13;1.67;;;;;;;28.25;43.45;96248.19;5029123;28;20085;-53
2022/08/22 11:35:45;;;;;;;3.67;1.60;;;;;;;27.98;42.45;96240.13;5029442;28;20072;-50
2022/08/22 11:38:20;;;;;;;4.00;1.60;;;;;;;28.19;41.09;96235.69;5029372;28;20093;-53
2022/08/22 11:40:56;;;;;;;5.05;2.05;;;;;;;27.80;41.86;96242.19;5028165;28;20069;-56
2022/08/22 11:43:37;;;;;;;4.40;1.83;;;;;;;27.60;41.68;96237.41;5025492;28;20084;-51
2022/08/22 11:46:23;;;;;;;4.22;1.80;;;;;;;27.12;43.04;96235.56;5026470;28;20144;-55
2022/08/22 11:49:05;;;;;;;4.80;1.88;;;;;;;27.23;44.84;96236.53;5028978;28;20081;-49
2022/08/22 11:52:12;;;;;;;5.47;1.90;;;;;;;27.96;44.81;96234.19;5020942;28;20084;-52
2022/08/22 11:54:57;;;;;;;6.85;2.22;;;;;;;28.66;42.45;96230.25;5021312;28;20046;-56
2022/08/22 11:57:31;;;;;;;4.13;1.80;;;;;;;28.95;42.17;96229.81;5026197;28;20085;-53
2022/08/22 12:00:10;;;;;;;6.60;1.80;;;;;;;28.50;41.63;96223.94;5028801;28;20089;-56
2022/08/22 12:02:47;;;;;;;5.80;1.75;;;;;;;29.14;41.50;96222.00;5028419;28;20085;-50
2022/08/22 12:05:20;;;;;;;4.05;2.00;;;;;;;29.27;42.38;96216.88;5029139;28;20057;-52
2022/08/22 12:08:05;;;;;;;3.13;1.73;;;;;;;28.97;38.34;96224.91;5028921;28;20080;-54
2022/08/22 12:10:36;;;;;;;3.38;2.15;;;;;;;29.72;39.00;96225.34;5028708;28;20088;-54
2022/08/22 12:13:08;;;;;;;2.20;1.55;;;;;;;28.24;36.74;96233.00;5026806;28;20533;-54
2022/08/22 12:15:43;;;;;;;4.13;1.80;;;;;;;29.28;35.82;96218.50;5028882;28;20089;-51
2022/08/22 12:18:28;;;;;;;3.13;1.88;;;;;;;29.39;35.73;96215.78;5028928;28;20527;-53
2022/08/22 12:21:38;;;;;;;4.03;1.80;;;;;;;28.61;38.07;96211.25;5028660;28;20131;-51